• Join FlightAware (Why Join?)
  • Login
  • US Flag 
Gobble Gobble! 
05:35PM EST


 

Airport Tracker/Info


-or-


 

Live Flight TrackerFlight Track Log ✈ DAL268 ✈ 16-Sep-2013 ✈ KSFO - KJFK

Flight Track Log - Related Links

Times and Time Zones

All times are in EDT time to prevent confusion due to time zone crossing. See the DAL268 flight status page for this flight to view local times or setup timezone preferences in your user account.

Time Position Orientation Groundspeed Altitude Reporting Facility
EDT Latitude Longitude Course Direction KTS MPH feet Rate Location/Type
02:40PM 37.6342 -122.3620 27° Northeast 168 193 1,200  Level FlightAware ADS-B
02:41PM 37.6368 -122.3600 31° Northeast 170 196 1,400 3,000 Climbing FlightAware ADS-B
02:41PM 37.6390 -122.3570 47° Northeast 171 197 1,600 2,100 Climbing FlightAware ADS-B
02:41PM 37.6467 -122.3460 49° Northeast 187 215 2,000 1,620 Climbing FlightAware ADS-B
02:42PM 37.6810 -122.2940 50° Northeast 261 300 3,400 2,100 Climbing FlightAware
02:42PM 37.7019 -122.2630 50° Northeast 269 310 4,800 3,060 Climbing FlightAware ADS-B
02:42PM 37.7119 -122.2500 46° Northeast 277 319 5,300 2,640 Climbing FlightAware ADS-B
02:42PM 37.7179 -122.2430 43° Northeast 279 321 5,600 3,000 Climbing FlightAware ADS-B
02:43PM 37.7411 -122.2210 37° Northeast 283 326 6,700 3,120 Climbing FlightAware ADS-B
02:43PM 37.7571 -122.2050 38° Northeast 285 328 7,600 2,820 Climbing FlightAware ADS-B
02:44PM 37.8040 -122.1610 37° Northeast 298 343 9,500 2,580 Climbing FlightAware
02:44PM 37.8386 -122.1280 37° Northeast 307 353 10,800 1,980 Climbing FlightAware ADS-B
02:45PM 37.8771 -122.0920 36° Northeast 333 383 11,600 1,500 Climbing FlightAware ADS-B
02:46PM 37.9340 -122.0380 37° Northeast 371 427 12,700 1,740 Climbing FlightAware
02:46PM 37.9840 -121.9900 37° Northeast 387 445 13,900 1,980 Climbing FlightAware
02:46PM 38.0093 -121.9660 37° Northeast 393 452 14,500 1,980 Climbing FlightAware ADS-B
02:47PM 38.0781 -121.9010 37° Northeast 406 467 16,000 1,980 Climbing FlightAware ADS-B
02:48PM 38.1380 -121.8440 37° Northeast 419 482 17,400 2,040 Climbing FlightAware
02:48PM 38.1910 -121.7930 37° Northeast 431 496 18,500 1,680 Climbing FlightAware
02:49PM 38.2500 -121.7370 37° Northeast 450 518 19,300 1,800 Climbing FlightAware
02:50PM 38.3100 -121.6800 37° Northeast 452 520 20,700 2,220 Climbing FlightAware
02:50PM 38.3690 -121.6210 38° Northeast 456 525 22,000 1,560 Climbing FlightAware
02:51PM 38.4240 -121.5670 38° Northeast 476 548 22,500 1,680 Climbing FlightAware
02:51PM 38.4690 -121.5120 44° Northeast 472 543 23,700 2,040 Climbing FlightAware
02:52PM 38.5150 -121.4330 53° Northeast 477 549 24,700 1,500 Climbing FlightAware
02:52PM 38.5620 -121.3490 54° Northeast 491 565 25,500 1,380 Climbing FlightAware
02:53PM 38.6120 -121.2640 53° Northeast 498 573 26,400 1,500 Climbing FlightAware
02:54PM 38.6560 -121.1880 53° Northeast 504 580 27,200 1,200 Climbing FlightAware
02:54PM 38.7050 -121.0990 55° Northeast 515 593 27,800 1,380 Climbing FlightAware
02:55PM 38.7570 -121.0100 53° Northeast 513 590 28,900 1,560 Climbing FlightAware
02:55PM 38.8020 -120.9330 53° Northeast 518 596 29,600 1,200 Climbing FlightAware
02:56PM 38.8580 -120.8360 53° Northeast 524 603 30,300 1,200 Climbing FlightAware
02:56PM 38.9010 -120.7610 54° Northeast 524 603 31,000 1,380 Climbing FlightAware
02:57PM 38.9560 -120.6670 53° Northeast 523 602 31,900 1,260 Climbing FlightAware
02:58PM 39.0080 -120.5760 54° Northeast 528 608 32,600 1,140 Climbing FlightAware
02:58PM 39.0600 -120.4850 54° Northeast 527 606 33,300 1,380 Climbing FlightAware
02:59PM 39.1050 -120.4060 54° Northeast 523 602 34,200 1,500 Climbing FlightAware
02:59PM 39.1520 -120.3240 54° Northeast 521 600 34,900 660 Climbing FlightAware
03:00PM 39.2100 -120.2230 53° Northeast 524 603 35,000 180 Climbing FlightAware
03:01PM 39.2620 -120.1330 53° Northeast 522 601 35,200 300 Climbing FlightAware
03:01PM 39.3070 -120.0550 53° Northeast 512 589 35,400 420 Climbing FlightAware
03:02PM 39.3580 -119.9640 54° Northeast 509 586 35,700 540 Climbing FlightAware
03:02PM 39.4090 -119.8740 54° Northeast 513 590 36,100 480 Climbing FlightAware
03:03PM 39.4540 -119.7940 54° Northeast 514 592 36,300 420 Climbing FlightAware
03:03PM 39.5040 -119.7050 54° Northeast 513 590 36,600 480 Climbing FlightAware
03:04PM 39.5570 -119.6100 54° Northeast 514 592 36,900 300 Climbing FlightAware
03:05PM 39.5990 -119.5350 54° Northeast 517 595 37,000 60 Climbing FlightAware
03:05PM 39.6510 -119.4420 54° Northeast 518 596 37,000  Level FlightAware
03:06PM 39.7010 -119.3520 54° Northeast 515 593 37,000  Level FlightAware
03:06PM 39.7460 -119.2690 55° Northeast 516 594 37,000  Level FlightAware
03:07PM 39.7930 -119.1850 54° Northeast 521 600 37,000  Level FlightAware
03:08PM 39.8470 -119.0870 54° Northeast 521 600 37,000  Level FlightAware
03:08PM 39.8940 -119.0010 55° Northeast 521 600 37,000  Level FlightAware
03:09PM 39.9480 -118.9030 54° Northeast 522 601 37,000  Level FlightAware
03:09PM 39.9920 -118.8220 55° Northeast 522 601 37,000  Level FlightAware
03:10PM 40.0430 -118.7300 54° Northeast 521 600 37,000  Level FlightAware
03:10PM 40.0850 -118.6510 55° Northeast 520 598 37,000  Level FlightAware
03:11PM 40.1320 -118.5450 60° Northeast 516 594 37,000  Level FlightAware
03:12PM 40.1630 -118.4420 68° East 514 592 37,000  Level FlightAware
03:12PM 40.1890 -118.3480 70° East 513 590 37,000  Level FlightAware
03:13PM 40.2130 -118.2580 71° East 511 588 37,000  Level FlightAware
03:13PM 40.2400 -118.1600 70° East 508 585 37,000  Level FlightAware
03:14PM 40.2660 -118.0660 70° East 507 583 37,000  Level FlightAware
03:15PM 40.2910 -117.9750 70° East 507 583 37,000  Level FlightAware
03:15PM 40.3160 -117.8850 70° East 507 583 37,000  Level FlightAware
03:16PM 40.3660 -117.6950 71° East 505 581 37,000  Level FlightAware
03:17PM 40.3910 -117.6040 70° East 505 581 37,000  Level FlightAware
03:17PM 40.4160 -117.5160 70° East 505 581 37,000  Level FlightAware
03:18PM 40.4400 -117.4280 70° East 505 581 37,000  Level FlightAware
03:18PM 40.4650 -117.3400 69° East 505 581 37,000  Level FlightAware
03:19PM 40.4890 -117.2510 70° East 505 581 37,000  Level FlightAware
03:20PM 40.5130 -117.1630 70° East 505 581 37,000  Level FlightAware
03:20PM 40.5380 -117.0740 70° East 505 581 37,000  Level FlightAware
03:21PM 40.5620 -116.9860 70° East 505 581 37,000  Level FlightAware
03:21PM 40.5850 -116.9020 70° East 505 581 37,000  Level FlightAware
03:22PM 40.6100 -116.8120 70° East 505 581 37,000  Level FlightAware
03:23PM 40.6360 -116.7210 69° East 505 581 37,000  Level FlightAware
03:23PM 40.6610 -116.6300 70° East 505 581 37,000  Level FlightAware
03:24PM 40.6850 -116.5410 70° East 505 581 37,000  Level FlightAware
03:24PM 40.7100 -116.4520 70° East 505 581 37,000  Level FlightAware
03:25PM 40.7738 -116.1640 74° East 501 577 37,000  Level FlightAware ADS-B
03:26PM 40.8459 -115.8910 71° East 500 575 37,000  Level FlightAware ADS-B
03:27PM 40.8696 -115.8010 71° East 499 574 37,000  Level FlightAware ADS-B
03:30PM 40.9836 -115.3620 71° East 496 571 37,000  Level FlightAware ADS-B
03:31PM 41.0399 -115.1420 71° East 495 570 37,000  Level FlightAware ADS-B
03:31PM 41.0625 -115.0540 71° East 495 570 37,000  Level FlightAware ADS-B
03:33PM 41.1246 -114.8080 71° East 494 568 37,000  Level FlightAware ADS-B
03:34PM 41.1629 -114.6550 72° East 494 568 37,000  Level FlightAware ADS-B
03:34PM 41.1960 -114.5220 72° East 493 567 37,000  Level FlightAware
03:35PM 41.2250 -114.4050 72° East 492 566 37,000  Level FlightAware ADS-B
03:36PM 41.2491 -114.3070 72° East 491 565 37,000  Level FlightAware ADS-B
03:36PM 41.2730 -114.2150 71° East 491 565 37,000  Level FlightAware
03:37PM 41.2960 -114.1250 71° East 491 565 37,000  Level FlightAware
03:37PM 41.3182 -114.0250 74° East 490 564 37,000  Level FlightAware ADS-B
03:38PM 41.3393 -113.9380 72° East 490 564 37,000  Level FlightAware ADS-B
03:38PM 41.3515 -113.8860 73° East 490 564 37,000  Level FlightAware ADS-B
03:39PM 41.3730 -113.6950 81° East 490 564 37,000  Level FlightAware
03:39PM 41.3765 -113.6480 84° East 490 564 37,000  Level FlightAware ADS-B
03:40PM 41.3825 -113.5540 85° East 489 563 37,000  Level FlightAware ADS-B
03:40PM 41.3882 -113.4640 85° East 489 563 37,000  Level FlightAware ADS-B
03:42PM 41.4012 -113.2570 85° East 489 563 37,000  Level FlightAware ADS-B
03:42PM 41.4071 -113.1630 85° East 489 563 37,000  Level FlightAware ADS-B
03:43PM 41.4130 -113.0680 85° East 489 563 37,000  Level FlightAware ADS-B
03:43PM 41.4190 -112.9690 85° East 488 562 37,000  Level FlightAware
03:44PM 41.4253 -112.8680 85° East 487 560 37,000  Level FlightAware ADS-B
03:44PM 41.4319 -112.7570 85° East 487 560 37,000  Level FlightAware ADS-B
03:45PM 41.4380 -112.6510 86° East 486 559 37,000  Level FlightAware
03:46PM 41.4440 -112.5440 86° East 485 558 37,000  Level FlightAware
03:46PM 41.4481 -112.4720 86° East 485 558 37,000  Level FlightAware ADS-B
03:47PM 41.4535 -112.3760 86° East 485 558 37,000  Level FlightAware ADS-B
03:47PM 41.4584 -112.2860 86° East 485 558 37,000  Level FlightAware ADS-B
03:48PM 41.4670 -112.1270 86° East 484 557 37,000  Level FlightAware
03:48PM 41.4693 -112.0840 86° East 484 557 37,000  Level FlightAware ADS-B
03:49PM 41.4744 -111.9860 86° East 483 556 37,000  Level FlightAware ADS-B
03:50PM 41.4830 -111.8160 86° East 482 555 37,000  Level FlightAware
03:50PM 41.4861 -111.7570 86° East 481 554 37,000  Level FlightAware ADS-B
03:51PM 41.4931 -111.6150 86° East 481 554 37,000  Level FlightAware ADS-B
03:51PM 41.4975 -111.5250 86° East 481 554 37,000  Level FlightAware ADS-B
03:52PM 41.5020 -111.4260 86° East 481 554 37,000  Level FlightAware
03:52PM 41.5071 -111.3210 86° East 483 556 37,000  Level FlightAware ADS-B
03:53PM 41.5112 -111.2310 86° East 484 557 37,000  Level FlightAware ADS-B
03:53PM 41.5154 -111.1380 87° East 484 557 37,000  Level FlightAware ADS-B
03:54PM 41.5210 -111.0090 87° East 483 556 37,000  Level FlightAware
03:55PM 41.5243 -110.9340 87° East 484 557 37,000  Level FlightAware ADS-B
03:55PM 41.5283 -110.8400 87° East 484 557 37,000  Level FlightAware ADS-B
03:56PM 41.5321 -110.7470 87° East 484 557 37,000  Level FlightAware ADS-B
03:57PM 41.5380 -110.5970 87° East 482 555 37,000  Level FlightAware
03:57PM 41.5420 -110.4910 87° East 481 554 37,000  Level FlightAware
03:58PM 41.5470 -110.3750 87° East 482 555 37,000  Level FlightAware
03:58PM 41.5510 -110.2740 87° East 482 555 37,000  Level FlightAware
03:59PM 41.5530 -110.2000 88° East 482 555 37,000  Level FlightAware
03:59PM 41.5570 -110.1090 87° East 482 555 37,000  Level FlightAware
04:00PM 41.5620 -109.9930 87° East 482 555 37,000  Level FlightAware
04:01PM 41.5650 -109.9010 87° East 482 555 37,000  Level FlightAware
04:01PM 41.5690 -109.8100 87° East 482 555 37,000  Level FlightAware
04:02PM 41.5720 -109.7190 87° East 482 555 37,000  Level FlightAware
04:03PM 41.5760 -109.6280 87° East 482 555 37,000  Level FlightAware
04:03PM 41.5790 -109.5350 87° East 482 555 37,000  Level FlightAware
04:04PM 41.5830 -109.4440 87° East 482 555 37,000  Level FlightAware
04:04PM 41.5870 -109.3520 87° East 482 555 37,000  Level FlightAware
04:05PM 41.5900 -109.2610 87° East 482 555 37,000  Level FlightAware
04:06PM 41.5940 -109.1700 87° East 482 555 37,000  Level FlightAware
04:06PM 41.5970 -109.0770 87° East 482 555 37,000  Level FlightAware
04:07PM 41.6010 -108.9850 87° East 482 555 37,000  Level FlightAware
04:07PM 41.6040 -108.8920 87° East 482 555 37,000  Level FlightAware
04:08PM 41.6080 -108.8060 86° East 482 555 37,000  Level FlightAware
04:09PM 41.6661 -108.3747 86° East 483 556 37,000  Level Salt Lake Center
04:10PM 41.6847 -108.2053 82° East 483 556 37,000  Level Salt Lake Center
04:11PM 41.7092 -108.0083 80° East 483 556 37,000  Level Salt Lake Center
04:12PM 41.7283 -107.8383 81° East 482 555 37,000  Level Salt Lake Center
04:13PM 41.7500 -107.6392 82° East 483 556 37,000  Level Salt Lake Center
04:14PM 41.7642 -107.4692 84° East 480 552 37,000  Level Salt Lake Center
04:20PM 41.8490 -106.5020 84° East 487 560 37,000  Level FlightAware
04:20PM 41.8600 -106.3950 82° East 486 559 37,000  Level FlightAware
04:21PM 41.8730 -106.2780 81° East 487 560 37,000  Level FlightAware
04:21PM 41.8840 -106.1740 82° East 487 560 37,000  Level FlightAware
04:22PM 41.8950 -106.0710 82° East 488 562 37,000  Level FlightAware
04:23PM 41.9040 -105.9840 82° East 488 562 37,000  Level FlightAware
04:23PM 41.9170 -105.8680 81° East 489 563 37,000  Level FlightAware
04:24PM 41.9270 -105.7690 82° East 490 564 37,000  Level FlightAware
04:24PM 41.9400 -105.6530 81° East 490 564 37,000  Level FlightAware
04:25PM 41.9520 -105.5450 81° East 489 563 37,000  Level FlightAware
04:26PM 41.9630 -105.4390 82° East 489 563 37,000  Level FlightAware
04:26PM 41.9740 -105.3350 82° East 489 563 37,000  Level FlightAware
04:27PM 41.9850 -105.2250 82° East 489 563 37,000  Level FlightAware
04:27PM 41.9950 -105.1330 82° East 489 563 37,000  Level FlightAware
04:28PM 42.0060 -105.0220 82° East 489 563 37,000  Level FlightAware
04:28PM 42.0170 -104.9110 82° East 489 563 37,000  Level FlightAware
04:29PM 42.0280 -104.8060 82° East 489 563 37,000  Level FlightAware
04:30PM 42.0370 -104.7070 83° East 489 563 37,000  Level FlightAware
04:30PM 42.0480 -104.6030 82° East 487 560 37,000  Level FlightAware
04:31PM 42.0590 -104.4920 82° East 486 559 37,000  Level FlightAware
04:31PM 42.0680 -104.3930 83° East 484 557 37,000  Level FlightAware
04:32PM 42.0770 -104.3010 82° East 484 557 37,000  Level FlightAware
04:32PM 42.0860 -104.2030 83° East 484 557 37,000  Level FlightAware
04:33PM 42.0960 -104.0950 83° East 483 556 37,000  Level FlightAware
04:34PM 42.1060 -103.9850 83° East 482 555 37,000  Level FlightAware
04:34PM 42.1160 -103.8830 82° East 481 554 37,000 240 Level FlightAware
04:35PM 42.1250 -103.7800 83° East 481 554 37,300 480 Climbing FlightAware
04:35PM 42.1340 -103.6780 83° East 482 555 37,600 180 Climbing FlightAware
04:36PM 42.1440 -103.5730 83° East 482 555 37,600 300 Level FlightAware
04:37PM 42.1530 -103.4670 83° East 481 554 38,000 300 Climbing FlightAware
04:37PM 42.1620 -103.3760 82° East 481 554 38,000  Level FlightAware
04:38PM 42.1700 -103.2850 83° East 481 554 38,000 840 Level FlightAware
04:38PM 42.1820 -103.1360 84° East 489 563 39,000 900 Climbing FlightAware
04:39PM 42.1890 -103.0470 84° East 489 563 39,000  Level FlightAware
04:40PM 42.1980 -102.9470 83° East 489 563 39,000  Level FlightAware
04:40PM 42.2070 -102.8540 83° East 489 563 39,000  Level FlightAware
04:41PM 42.2150 -102.7610 83° East 489 563 39,000  Level FlightAware
04:41PM 42.2250 -102.6110 85° East 484 557 39,000  Level FlightAware
04:42PM 42.2340 -102.5140 83° East 484 557 39,000  Level FlightAware
04:42PM 42.2420 -102.4270 83° East 484 557 39,000  Level FlightAware
04:43PM 42.2500 -102.3350 83° East 484 557 39,000  Level FlightAware
04:44PM 42.2580 -102.1810 86° East 481 554 39,000  Level FlightAware
04:44PM 42.2660 -102.0870 83° East 481 554 39,000  Level FlightAware
04:45PM 42.2730 -101.9960 84° East 481 554 39,000  Level FlightAware
04:45PM 42.2800 -101.9040 84° East 481 554 39,000  Level FlightAware
04:46PM 42.2870 -101.8120 84° East 481 554 39,000  Level FlightAware
04:47PM 42.2940 -101.7260 84° East 481 554 39,000  Level FlightAware
04:47PM 42.3010 -101.6340 84° East 481 554 39,000  Level FlightAware
04:48PM 42.3080 -101.5480 84° East 481 554 39,000  Level FlightAware
04:48PM 42.3150 -101.4560 84° East 481 554 39,000  Level FlightAware
04:49PM 42.3220 -101.3650 84° East 481 554 39,000  Level FlightAware
04:50PM 42.3290 -101.2680 84° East 481 554 39,000  Level FlightAware
04:50PM 42.3370 -101.1740 83° East 481 554 39,000  Level FlightAware
04:51PM 42.3440 -101.0820 84° East 481 554 39,000  Level FlightAware
04:51PM 42.3510 -100.9910 84° East 481 554 39,000  Level FlightAware
04:52PM 42.3580 -100.8960 84° East 481 554 39,000  Level FlightAware
04:53PM 42.3650 -100.8020 84° East 481 554 39,000  Level FlightAware
04:53PM 42.3730 -100.7110 83° East 481 554 39,000  Level FlightAware
04:57PM 42.4128 -99.8331 86° East 488 562 39,000  Level FlightAware ADS-B
04:57PM 42.4178 -99.7417 86° East 488 562 39,000  Level FlightAware ADS-B
04:58PM 42.4289 -99.5363 86° East 488 562 39,000  Level FlightAware ADS-B
04:59PM 42.4338 -99.4434 86° East 488 562 39,000  Level FlightAware ADS-B
05:00PM 42.4408 -99.3070 86° East 489 563 39,000  Level FlightAware ADS-B
05:01PM 42.4538 -99.0429 86° East 489 563 39,000  Level FlightAware ADS-B
05:01PM 42.4582 -98.9512 86° East 490 564 39,000  Level FlightAware ADS-B
05:03PM 42.4646 -98.8151 86° East 490 564 39,000  Level FlightAware ADS-B
05:03PM 42.4771 -98.5864 86° East 490 564 39,000  Level FlightAware ADS-B
05:05PM 42.4868 -98.3461 87° East 490 564 39,000  Level FlightAware ADS-B
05:05PM 42.4913 -98.2514 86° East 490 564 39,000  Level FlightAware ADS-B
05:06PM 42.4959 -98.1567 86° East 490 564 39,000  Level FlightAware ADS-B
05:07PM 42.5057 -97.9500 86° East 491 565 39,000  Level FlightAware ADS-B
05:07PM 42.5101 -97.8548 86° East 491 565 39,000  Level FlightAware ADS-B
05:08PM 42.5142 -97.7626 87° East 491 565 39,000  Level FlightAware ADS-B
05:09PM 42.5220 -97.5830 87° East 490 564 39,000  Level FlightAware
05:09PM 42.5233 -97.5475 87° East 491 565 39,000  Level FlightAware ADS-B
05:10PM 42.5271 -97.4542 87° East 491 565 39,000  Level FlightAware ADS-B
05:10PM 42.5308 -97.3616 87° East 491 565 39,000  Level FlightAware ADS-B
05:11PM 42.5350 -97.2640 87° East 491 565 39,000  Level FlightAware
05:11PM 42.5388 -97.1529 87° East 491 565 39,000  Level FlightAware ADS-B
05:12PM 42.5425 -97.0555 87° East 491 565 39,000  Level FlightAware ADS-B
05:12PM 42.5459 -96.9637 87° East 490 564 39,000  Level FlightAware ADS-B
05:13PM 42.5520 -96.7830 87° East 489 563 39,000  Level FlightAware
05:13PM 42.5533 -96.7528 87° East 490 564 39,000  Level FlightAware ADS-B
05:14PM 42.5564 -96.6611 87° East 489 563 39,000  Level FlightAware ADS-B
05:14PM 42.5595 -96.5685 87° East 489 563 39,000  Level FlightAware ADS-B
05:15PM 42.5630 -96.4530 88° East 489 563 39,000  Level FlightAware
05:16PM 42.5662 -96.3564 87° East 488 562 39,000  Level FlightAware ADS-B
05:16PM 42.5693 -96.2560 88° East 488 562 39,000  Level FlightAware ADS-B
05:17PM 42.5720 -96.1622 88° East 488 562 39,000  Level FlightAware ADS-B
05:17PM 42.5760 -96.0310 88° East 488 562 39,000  Level FlightAware
05:18PM 42.5778 -95.9566 88° East 488 562 39,000  Level FlightAware ADS-B
05:18PM 42.5804 -95.8633 88° East 488 562 39,000  Level FlightAware ADS-B
05:19PM 42.5827 -95.7718 88° East 488 562 39,000  Level FlightAware ADS-B
05:20PM 42.5870 -95.6050 88° East 488 562 39,000  Level FlightAware
05:20PM 42.5879 -95.5625 88° East 488 562 39,000  Level FlightAware ADS-B
05:20PM 42.5901 -95.4682 88° East 488 562 39,000  Level FlightAware ADS-B
05:21PM 42.5923 -95.3723 88° East 489 563 39,000  Level FlightAware ADS-B
05:21PM 42.5940 -95.2820 89° East 489 563 39,000  Level FlightAware
05:22PM 42.5967 -95.1615 88° East 489 563 39,000  Level FlightAware ADS-B
05:23PM 42.5986 -95.0694 88° East 489 563 39,000  Level FlightAware ADS-B
05:23PM 42.6004 -94.9776 88° East 490 564 39,000  Level FlightAware ADS-B
05:24PM 42.6030 -94.8620 88° East 490 564 39,000  Level FlightAware
05:24PM 42.6043 -94.7584 89° East 490 564 39,000  Level FlightAware ADS-B
05:25PM 42.6059 -94.6640 89° East 490 564 39,000  Level FlightAware ADS-B
05:25PM 42.6073 -94.5711 89° East 490 564 39,000  Level FlightAware ADS-B
05:26PM 42.6090 -94.4260 89° East 491 565 39,000  Level FlightAware
05:26PM 42.6101 -94.3648 89° East 491 565 39,000  Level FlightAware ADS-B
05:27PM 42.6114 -94.2631 89° East 491 565 39,000  Level FlightAware ADS-B
05:28PM 42.6123 -94.1702 89° East 492 566 39,000  Level FlightAware ADS-B
05:28PM 42.6140 -94.0070 89° East 492 566 39,000  Level FlightAware
05:29PM 42.6139 -93.9692 90° East 492 566 39,000  Level FlightAware ADS-B
05:29PM 42.6145 -93.8630 90° East 493 567 39,000  Level FlightAware ADS-B
05:30PM 42.6150 -93.6860 90° East 492 566 39,000  Level FlightAware
05:31PM 42.6160 -93.5740 89° East 492 566 39,000  Level FlightAware
05:31PM 42.6160 -93.4590 90° East 492 566 39,000  Level FlightAware
05:32PM 42.6170 -93.3420 89° East 491 565 39,000  Level FlightAware
05:32PM 42.6170 -93.2550 90° East 491 565 39,000  Level FlightAware
05:33PM 42.6170 -93.1080 90° East 492 566 39,000  Level FlightAware
05:34PM 42.6170 -93.0090 90° East 492 566 39,000  Level FlightAware
05:34PM 42.6160 -92.8980 91° East 492 566 39,000  Level FlightAware
05:35PM 42.6160 -92.7930 90° East 493 567 39,000  Level FlightAware
05:36PM 42.6160 -92.6770 90° East 494 568 39,000  Level FlightAware
05:36PM 42.6150 -92.5780 91° East 494 568 39,000  Level FlightAware
05:37PM 42.6150 -92.4690 90° East 495 570 39,000  Level FlightAware
05:37PM 42.6140 -92.3530 91° East 495 570 39,000  Level FlightAware
05:38PM 42.6130 -92.2500 91° East 495 570 39,000  Level FlightAware
05:38PM 42.6120 -92.1390 91° East 495 570 39,000  Level FlightAware
05:39PM 42.6110 -92.0300 91° East 495 570 39,000  Level FlightAware
05:40PM 42.6100 -91.9330 91° East 494 568 39,000  Level FlightAware
05:40PM 42.6090 -91.8310 91° East 493 567 39,000  Level FlightAware
05:41PM 42.6070 -91.7120 91° East 491 565 39,000  Level FlightAware
05:41PM 42.6060 -91.6050 91° East 490 564 39,000  Level FlightAware
05:42PM 42.6050 -91.4960 91° East 490 564 39,000  Level FlightAware
05:43PM 42.6030 -91.3840 91° East 490 564 39,000  Level FlightAware
05:43PM 42.6010 -91.2860 92° East 491 565 39,000  Level FlightAware
05:44PM 42.5990 -91.1780 91° East 491 565 39,000  Level FlightAware
05:44PM 42.5970 -91.0640 91° East 492 566 39,000  Level FlightAware
05:45PM 42.5960 -90.9650 91° East 492 566 39,000  Level FlightAware
05:45PM 42.5930 -90.8500 92° East 492 566 39,000  Level FlightAware
05:46PM 42.5910 -90.7440 91° East 492 566 39,000  Level FlightAware
05:47PM 42.5890 -90.6410 91° East 492 566 39,000  Level FlightAware
05:47PM 42.5860 -90.5300 92° East 492 566 39,000  Level FlightAware
05:48PM 42.5840 -90.4140 91° East 491 565 39,000  Level FlightAware
05:48PM 42.5810 -90.3170 92° East 490 564 39,000  Level FlightAware
05:49PM 42.5790 -90.2110 91° East 490 564 39,000  Level FlightAware
05:50PM 42.5760 -90.1100 92° East 490 564 39,000  Level FlightAware
05:50PM 42.5730 -89.9900 92° East 489 563 39,000  Level FlightAware
05:51PM 42.5700 -89.8910 92° East 488 562 39,000  Level FlightAware
05:51PM 42.5670 -89.7770 92° East 487 560 39,000  Level FlightAware
05:52PM 42.5640 -89.6790 92° East 487 560 39,000  Level FlightAware
05:53PM 42.5600 -89.5600 93° East 486 559 39,000  Level FlightAware
05:53PM 42.5570 -89.4560 92° East 486 559 39,000  Level FlightAware
05:54PM 42.5530 -89.3550 93° East 486 559 39,000  Level FlightAware
05:54PM 42.5500 -89.2450 92° East 486 559 39,000  Level FlightAware
05:55PM 42.5460 -89.1390 93° East 486 559 39,000  Level FlightAware
05:55PM 42.5420 -89.0440 93° East 487 560 39,000  Level FlightAware
05:56PM 42.5380 -88.9230 93° East 488 562 39,000  Level FlightAware
05:57PM 42.5340 -88.8150 93° East 488 562 39,000  Level FlightAware
05:57PM 42.5300 -88.7090 93° East 488 562 39,000  Level FlightAware
05:58PM 42.5260 -88.6120 93° East 487 560 39,000  Level FlightAware
05:58PM 42.5210 -88.4990 93° East 488 562 39,000  Level FlightAware
05:59PM 42.5170 -88.3990 93° East 487 560 39,000  Level FlightAware
06:00PM 42.5120 -88.2810 93° East 487 560 39,000  Level FlightAware
06:00PM 42.5080 -88.1870 93° East 487 560 39,000  Level FlightAware
06:01PM 42.5030 -88.0730 93° East 488 562 39,000  Level FlightAware
06:01PM 42.5000 -87.9620 92° East 488 562 39,000  Level FlightAware
06:02PM 42.5000 -87.8570 90° East 488 562 39,000  Level FlightAware
06:03PM 42.5000 -87.7250 90° East 488 562 39,000  Level FlightAware
06:03PM 42.4990 -87.6230 91° East 487 560 39,000  Level FlightAware
06:04PM 42.4990 -87.5280 90° East 487 560 39,000  Level FlightAware
06:04PM 42.4990 -87.4130 90° East 486 559 39,000  Level FlightAware
06:05PM 42.4980 -87.3090 91° East 485 558 39,000  Level FlightAware
06:05PM 42.4980 -87.2150 90° East 485 558 39,000  Level FlightAware
06:06PM 42.4970 -87.1100 91° East 484 557 39,000  Level FlightAware
06:07PM 42.4960 -86.9880 91° East 482 555 39,000  Level FlightAware
06:07PM 42.4950 -86.8810 91° East 480 552 39,000  Level FlightAware
06:08PM 42.4940 -86.7840 91° East 480 552 39,000  Level FlightAware
06:08PM 42.4930 -86.6810 91° East 481 554 39,000  Level FlightAware
06:09PM 42.4920 -86.5770 91° East 482 555 39,000  Level FlightAware
06:10PM 42.4900 -86.4580 91° East 482 555 39,000  Level FlightAware
06:10PM 42.4890 -86.3620 91° East 482 555 39,000  Level FlightAware
06:11PM 42.4870 -86.2380 91° East 482 555 39,000  Level FlightAware
06:11PM 42.4850 -86.1270 91° East 482 555 39,000  Level FlightAware
06:12PM 42.4830 -86.0160 91° East 481 554 39,000  Level FlightAware
06:12PM 42.4820 -85.9240 91° East 481 554 39,000  Level FlightAware
06:13PM 42.4800 -85.8130 91° East 481 554 39,000  Level FlightAware
06:14PM 42.4780 -85.7080 91° East 481 554 39,000  Level FlightAware
06:14PM 42.4760 -85.6070 92° East 480 552 39,000  Level FlightAware
06:15PM 42.4730 -85.5020 92° East 480 552 39,000  Level FlightAware
06:15PM 42.4710 -85.3920 91° East 480 552 39,000  Level FlightAware
06:16PM 42.4680 -85.2700 92° East 479 551 39,000  Level FlightAware
06:17PM 42.4660 -85.1630 91° East 479 551 39,000  Level FlightAware
06:17PM 42.4630 -85.0530 92° East 479 551 39,000  Level FlightAware
06:18PM 42.4600 -84.9450 92° East 480 552 39,000  Level FlightAware
06:18PM 42.4580 -84.8520 92° East 480 552 39,000  Level FlightAware
06:19PM 42.4550 -84.7450 92° East 481 554 39,000  Level FlightAware
06:20PM 42.4520 -84.6340 92° East 481 554 39,000  Level FlightAware
06:20PM 42.4480 -84.5260 93° East 482 555 39,000  Level FlightAware
06:21PM 42.4450 -84.4300 92° East 483 556 39,000  Level FlightAware
06:21PM 42.4420 -84.3180 92° East 483 556 39,000  Level FlightAware
06:22PM 42.4390 -84.2160 92° East 484 557 39,000  Level FlightAware
06:23PM 42.4340 -84.0900 93° East 485 558 39,000  Level FlightAware
06:23PM 42.4310 -83.9800 92° East 486 559 39,000  Level FlightAware
06:24PM 42.4270 -83.8830 93° East 488 562 39,000  Level FlightAware
06:24PM 42.4230 -83.7740 93° East 489 563 39,000  Level FlightAware
06:25PM 42.4190 -83.6560 93° East 490 564 39,000  Level FlightAware
06:26PM 42.4150 -83.5480 93° East 491 565 39,000  Level FlightAware
06:26PM 42.4100 -83.4380 93° East 492 566 39,000  Level FlightAware
06:27PM 42.4070 -83.3400 92° East 493 567 39,000  Level FlightAware
06:27PM 42.4020 -83.2290 93° East 494 568 39,000  Level FlightAware
06:28PM 42.3970 -83.1170 93° East 494 568 39,000  Level FlightAware
06:29PM 42.3930 -83.0090 93° East 495 570 39,000  Level FlightAware
06:29PM 42.3880 -82.9090 94° East 495 570 39,000  Level FlightAware
06:30PM 42.3830 -82.7970 93° East 494 568 39,000  Level FlightAware
06:30PM 42.3780 -82.6860 93° East 493 567 39,000  Level FlightAware
06:31PM 42.3750 -82.5910 92° East 493 567 39,000  Level FlightAware
06:31PM 42.3700 -82.4780 93° East 493 567 39,000  Level FlightAware
06:32PM 42.3660 -82.3700 93° East 493 567 39,000  Level FlightAware
06:33PM 42.3610 -82.2550 93° East 492 566 39,000  Level FlightAware
06:33PM 42.3570 -82.1570 93° East 493 567 39,000  Level FlightAware
06:34PM 42.3530 -82.0660 93° East 494 568 39,000  Level FlightAware
06:34PM 42.3470 -81.9300 93° East 495 570 39,000  Level FlightAware
06:35PM 42.3430 -81.8300 93° East 496 571 39,000  Level FlightAware
06:36PM 42.3380 -81.7230 94° East 497 572 39,000  Level FlightAware
06:36PM 42.3330 -81.6100 93° East 499 574 39,000  Level FlightAware
06:37PM 42.3270 -81.4960 94° East 500 575 39,000  Level FlightAware
06:37PM 42.3230 -81.4010 93° East 501 577 39,000  Level FlightAware
06:38PM 42.3170 -81.2850 94° East 502 578 39,000  Level FlightAware
06:38PM 42.3120 -81.1760 94° East 502 578 39,000  Level FlightAware
06:39PM 42.3070 -81.0770 94° East 502 578 39,000  Level FlightAware
06:40PM 42.3010 -80.9640 94° East 502 578 39,000  Level FlightAware
06:40PM 42.2940 -80.8460 95° East 501 577 39,000  Level FlightAware
06:41PM 42.2890 -80.7400 94° East 500 575 39,000  Level FlightAware
06:41PM 42.2830 -80.6360 94° East 499 574 39,000  Level FlightAware
06:42PM 42.2760 -80.5190 95° East 498 573 39,000  Level FlightAware
06:43PM 42.2700 -80.4110 94° East 498 573 39,000  Level FlightAware
06:43PM 42.2640 -80.3020 94° East 498 573 39,000  Level FlightAware
06:44PM 42.2580 -80.1950 94° East 499 574 39,000  Level FlightAware
06:44PM 42.2520 -80.0950 95° East 499 574 39,000  Level FlightAware
06:45PM 42.2450 -79.9810 95° East 500 575 39,000  Level FlightAware
06:45PM 42.2380 -79.8660 95° East 501 577 39,000  Level FlightAware
06:46PM 42.2310 -79.7660 95° East 502 578 39,000  Level FlightAware
06:47PM 42.2240 -79.6560 95° East 503 579 39,000  Level FlightAware
06:47PM 42.2170 -79.5390 95° East 504 580 39,000  Level FlightAware
06:48PM 42.2100 -79.4350 95° East 506 582 39,000  Level FlightAware
06:48PM 42.2020 -79.3250 96° East 506 582 39,000  Level FlightAware
06:49PM 42.1950 -79.2150 95° East 506 582 39,000  Level FlightAware
06:50PM 42.1820 -79.1020 99° East 512 589 39,000  Level FlightAware
06:50PM 42.1610 -79.0090 107° East 514 592 39,000  Level FlightAware
06:51PM 42.1350 -78.9040 108° East 514 592 39,000  Level FlightAware
06:51PM 42.1060 -78.7900 109° East 513 590 39,000  Level FlightAware
06:52PM 42.0800 -78.6890 109° East 512 589 39,000  Level FlightAware
06:52PM 42.0520 -78.5790 109° East 512 589 39,000  Level FlightAware
06:53PM 42.0240 -78.4660 108° East 510 587 39,000  Level FlightAware
06:54PM 42.0000 -78.3750 110° East 509 586 39,000  Level FlightAware
06:54PM 41.9750 -78.2740 108° East 508 585 39,000  Level FlightAware
06:55PM 41.9440 -78.1550 109° East 508 585 39,000  Level FlightAware
06:55PM 41.9200 -78.0650 110° East 506 582 39,000  Level FlightAware
06:56PM 41.8920 -77.9560 109° East 506 582 39,000  Level FlightAware
06:57PM 41.8640 -77.8480 109° East 505 581 39,000  Level FlightAware
06:57PM 41.8360 -77.7420 109° East 505 581 39,000  Level FlightAware
06:58PM 41.8090 -77.6400 110° East 504 580 39,000  Level FlightAware
06:58PM 41.7810 -77.5350 110° East 504 580 39,000  Level FlightAware
06:59PM 41.7540 -77.4320 109° East 503 579 39,000  Level FlightAware
06:59PM 41.7280 -77.3360 110° East 503 579 39,000  Level FlightAware
07:00PM 41.7000 -77.2300 109° East 503 579 39,000  Level FlightAware
07:01PM 41.6720 -77.1250 110° East 504 580 39,000  Level FlightAware
07:01PM 41.6430 -77.0210 110° East 506 582 39,000  Level FlightAware
07:02PM 41.6160 -76.9190 109° East 506 582 39,000 -480 Level FlightAware
07:02PM 41.5900 -76.8240 110° East 507 583 38,500 -1,140 Descending FlightAware
07:03PM 41.5570 -76.7020 110° East 513 590 37,600 -1,080 Descending FlightAware
07:04PM 41.5310 -76.6110 111° Southeast 510 587 37,200 -1,080 Descending FlightAware
07:04PM 41.5000 -76.4990 110° East 516 594 36,400 -1,140 Descending FlightAware
07:05PM 41.4720 -76.3960 110° East 516 594 35,900 -1,020 Descending FlightAware
07:05PM 41.4380 -76.2750 111° Southeast 514 592 35,200 -1,860 Descending FlightAware
07:06PM 41.4120 -76.1820 110° East 518 596 33,800 -2,880 Descending FlightAware
07:07PM 41.3800 -76.0680 110° East 517 595 31,900 -2,940 Descending FlightAware
07:07PM 41.3530 -75.9710 110° East 513 590 30,400 -2,460 Descending FlightAware
07:08PM 41.3240 -75.8690 111° Southeast 500 575 29,100 -2,160 Descending FlightAware
07:08PM 41.2940 -75.7640 111° Southeast 484 557 27,800 -2,100 Descending FlightAware
07:09PM 41.2620 -75.6560 111° Southeast 469 540 26,500 -1,980 Descending FlightAware
07:10PM 41.2290 -75.5580 114° Southeast 457 526 25,300 -1,920 Descending FlightAware
07:10PM 41.1990 -75.4670 114° Southeast 468 539 24,200 -1,920 Descending FlightAware
07:11PM 41.1690 -75.3780 114° Southeast 464 534 23,100 -1,080 Descending FlightAware
07:11PM 41.1370 -75.2820 114° Southeast 468 539 23,000 -120 Descending FlightAware
07:12PM 41.1030 -75.1840 115° Southeast 472 543 23,000  Level FlightAware
07:13PM 41.0690 -75.0830 114° Southeast 471 542 23,000 -480 Level FlightAware
07:13PM 41.0340 -74.9800 114° Southeast 466 536 22,400 -780 Descending FlightAware
07:14PM 41.0020 -74.8790 113° Southeast 462 532 22,000 -720 Descending FlightAware
07:15PM 40.9870 -74.7920 103° East 463 533 21,600 -720 Descending FlightAware
07:15PM 40.9760 -74.6940 98° East 463 533 21,200 -720 Descending FlightAware
07:16PM 40.9650 -74.5900 98° East 462 532 20,800 -720 Descending FlightAware
07:16PM 40.9560 -74.5050 98° East 460 529 20,400 -780 Descending FlightAware
07:17PM 40.9440 -74.3960 98° East 451 519 19,900 -840 Descending FlightAware
07:17PM 40.9340 -74.3010 98° East 434 499 19,400 -660 Descending FlightAware
07:18PM 40.9240 -74.2150 99° East 430 495 19,200 -300 Descending FlightAware
07:18PM 40.9149 -74.1419 99° East 402 463 19,100 -180 Descending FlightAware ADS-B
07:19PM 40.9119 -74.1307 110° East 396 456 19,100  Level FlightAware ADS-B
07:19PM 40.9097 -74.1241 114° Southeast 391 450 19,100 -420 Level FlightAware ADS-B
07:20PM 40.8552 -74.0110 122° Southeast 366 421 18,600 -1,140 Descending FlightAware ADS-B
07:21PM 40.7880 -73.8810 124° Southeast 355 409 16,700 -1,740 Descending FlightAware
07:21PM 40.7540 -73.8180 125° Southeast 351 404 15,800 -1,500 Descending FlightAware
07:22PM 40.7190 -73.7560 127° Southeast 345 397 14,900 -1,440 Descending FlightAware
07:23PM 40.6780 -73.7040 136° Southeast 332 382 14,100 -1,380 Descending FlightAware
07:23PM 40.6620 -73.6930 152° Southeast 323 372 13,800 -1,620 Descending FlightAware
07:23PM 40.6150 -73.6730 162° South 322 371 12,900 -1,800 Descending FlightAware
07:24PM 40.5640 -73.6530 163° South 315 362 11,700 -2,040 Descending FlightAware
07:25PM 40.5140 -73.6360 166° South 299 344 10,500 -2,040 Descending FlightAware
07:25PM 40.4820 -73.6490 197° South 278 320 9,600 -2,400 Descending FlightAware
07:25PM 40.4570 -73.6700 213° Southwest 282 325 8,600 -2,640 Descending FlightAware
07:26PM 40.4380 -73.6860 213° Southwest 283 326 7,800 -2,460 Descending FlightAware
07:26PM 40.4110 -73.7090 213° Southwest 282 325 6,900 -2,340 Descending FlightAware
07:26PM 40.3870 -73.7300 214° Southwest 277 319 6,100 -2,160 Descending FlightAware
07:27PM 40.3660 -73.7490 215° Southwest 274 315 5,400 -2,160 Descending FlightAware
07:27PM 40.3580 -73.7570 217° Southwest 273 314 5,100 -2,280 Descending FlightAware
07:27PM 40.3530 -73.7660 234° Southwest 270 311 4,800 -2,040 Descending FlightAware
07:27PM 40.3500 -73.7730 241° Southwest 266 306 4,700 -2,040 Descending FlightAware
07:27PM 40.3470 -73.7850 252° West 262 302 4,400 -2,280 Descending FlightAware
07:27PM 40.3470 -73.7980 270° West 258 297 4,100 -1,800 Descending FlightAware
07:28PM 40.3470 -73.8170 270° West 256 295 3,800 -1,320 Descending FlightAware
07:28PM 40.3490 -73.8480 275° West 256 295 3,400 -1,200 Descending FlightAware
07:28PM 40.3500 -73.8710 273° West 253 291 3,100 -720 Descending FlightAware
07:29PM 40.3540 -73.9000 280° West 239 275 3,000 -480 Descending FlightAware
07:29PM 40.3570 -73.9080 296° West 236 272 2,900 -420 Descending FlightAware
07:29PM 40.3650 -73.9170 319° Northwest 220 253 2,900  Level FlightAware
07:29PM 40.3760 -73.9220 341° North 207 238 2,900 -240 Level FlightAware
07:29PM 40.3930 -73.9240 355° North 200 230 2,800 -780 Descending FlightAware
07:30PM 40.4280 -73.9180 North 202 232 2,200 -960 Descending FlightAware
07:30PM 40.4520 -73.9050 22° Northeast 203 234 1,800 -600 Descending FlightAware
07:31PM 40.4640 -73.8970 27° Northeast 200 230 1,800  Level FlightAware
07:31PM 40.4810 -73.8840 30° Northeast 182 209 1,800  Level FlightAware
07:31PM 40.4950 -73.8720 33° Northeast 176 203 1,800  Level FlightAware
07:32PM 40.5200 -73.8530 30° Northeast 175 201 1,800  Level FlightAware
07:32PM 40.5340 -73.8410 33° Northeast 174 200 1,800 -300 Level FlightAware
07:33PM 40.5490 -73.8300 29° Northeast 177 204 1,600 -840 Descending FlightAware
07:33PM 40.5650 -73.8180 30° Northeast 174 200 1,200 -840 Descending FlightAware
07:33PM 40.5780 -73.8080 30° Northeast 155 178 1,000 -780 Descending FlightAware
07:34PM 40.5900 -73.7980 32° Northeast 135 155 700 -780 Descending FlightAware
07:34PM 40.6000 -73.7900 31° Northeast 129 148 500 -780 Descending FlightAware
07:34PM 40.6060 -73.7860 27° Northeast 132 152 300 -1,020 Descending FlightAware
07:35PM 40.6190 -73.7760 30° Northeast 126 145 -720 Descending FlightAware
07:35PM 40.6290 -73.7680 31° Northeast 127 146  Level FlightAware